createdAt,value
2022-12-23T00:00:25.199Z,3.92
2022-12-23T00:02:51.857Z,4.30
2022-12-23T00:05:18.526Z,4.05
2022-12-23T00:07:45.002Z,4.40
2022-12-23T00:10:12.165Z,4.03
2022-12-23T00:12:57.216Z,4.70
2022-12-23T00:15:23.604Z,4.57
2022-12-23T00:17:50.044Z,4.68
2022-12-23T00:20:16.476Z,5.45
2022-12-23T00:23:01.689Z,5.28
2022-12-23T00:25:46.101Z,5.53
2022-12-23T00:28:18.941Z,5.60
2022-12-23T00:30:58.973Z,5.40
2022-12-23T00:33:31.786Z,5.38
2022-12-23T00:35:58.436Z,5.95
2022-12-23T00:38:44.158Z,5.93
2022-12-23T00:41:34.003Z,5.07
2022-12-23T00:44:01.499Z,5.10
2022-12-23T00:46:28.432Z,5.15
2022-12-23T00:49:13.665Z,4.60
2022-12-23T00:51:40.314Z,4.47
2022-12-23T00:54:07.270Z,3.97
2022-12-23T00:56:34.185Z,3.92
2022-12-23T00:59:00.810Z,3.67
2022-12-23T01:01:46.086Z,4.50
2022-12-23T01:04:32.937Z,3.83
2022-12-23T01:06:59.651Z,3.70
2022-12-23T01:09:26.819Z,3.33
2022-12-23T01:11:53.363Z,3.22
2022-12-23T01:14:20.275Z,3.50
2022-12-23T01:16:46.802Z,3.17
2022-12-23T01:19:13.692Z,3.58
2022-12-23T01:21:40.395Z,2.70
2022-12-23T01:24:07.795Z,2.92
2022-12-23T01:26:34.353Z,2.72
2022-12-23T01:29:01.530Z,3.23
2022-12-23T01:31:29.093Z,2.95
2022-12-23T01:33:56.103Z,3.13
2022-12-23T01:36:23.621Z,3.28
2022-12-23T01:38:50.547Z,3.10
2022-12-23T01:41:47.948Z,3.53
2022-12-23T01:44:51.689Z,3.35
2022-12-23T01:47:43.832Z,3.03
2022-12-23T01:50:25.176Z,3.35
2022-12-23T01:53:08.725Z,3.70
2022-12-23T01:55:44.636Z,2.70
2022-12-23T01:58:20.474Z,3.10
2022-12-23T02:01:05.629Z,3.55
2022-12-23T02:03:44.781Z,3.75
2022-12-23T02:06:38.201Z,2.83
2022-12-23T02:09:31.408Z,3.47
2022-12-23T02:12:21.378Z,3.55
2022-12-23T02:15:26.350Z,3.00
2022-12-23T02:18:04.167Z,3.40
2022-12-23T02:20:48.737Z,4.28
2022-12-23T02:23:18.153Z,3.80
2022-12-23T02:26:38.441Z,4.50
2022-12-23T02:29:38.482Z,3.60
2022-12-23T02:32:14.311Z,3.70
2022-12-23T02:34:55.954Z,3.50
2022-12-23T02:37:49.584Z,3.67
2022-12-23T02:40:38.225Z,3.05
2022-12-23T02:43:15.556Z,3.38
2022-12-23T02:45:49.450Z,3.53
2022-12-23T02:48:40.740Z,3.22
2022-12-23T02:51:13.105Z,5.37
2022-12-23T02:54:08.522Z,3.55
2022-12-23T02:56:38.130Z,4.15
2022-12-23T02:59:18.521Z,4.30
2022-12-23T03:01:46.041Z,4.53
2022-12-23T03:04:12.556Z,4.05
2022-12-23T03:06:44.401Z,4.28
2022-12-23T03:09:17.276Z,4.18
2022-12-23T03:11:55.619Z,3.60
2022-12-23T03:15:08.282Z,3.80
2022-12-23T03:17:49.827Z,3.97
2022-12-23T03:20:29.190Z,3.85
2022-12-23T03:23:11.209Z,3.90
2022-12-23T03:25:51.174Z,3.70
2022-12-23T03:28:26.887Z,4.28
2022-12-23T03:30:57.490Z,4.33
2022-12-23T03:33:32.971Z,4.45
2022-12-23T03:36:06.479Z,4.70
2022-12-23T03:38:36.138Z,4.63
2022-12-23T03:41:09.412Z,4.57
2022-12-23T03:43:48.379Z,4.10
2022-12-23T03:46:23.513Z,5.18
2022-12-23T03:48:58.627Z,4.43
2022-12-23T03:51:36.359Z,5.13
2022-12-23T03:54:13.038Z,4.50
2022-12-23T03:56:46.132Z,5.47
2022-12-23T03:59:25.291Z,5.25
2022-12-23T04:02:09.804Z,5.45
2022-12-23T04:04:42.234Z,5.30
2022-12-23T04:07:19.113Z,4.90
2022-12-23T04:09:46.593Z,5.13
2022-12-23T04:12:14.516Z,5.13
2022-12-23T04:14:49.186Z,5.18
2022-12-23T04:17:16.680Z,5.65
2022-12-23T04:19:47.445Z,5.72
2022-12-23T04:22:15.639Z,5.53
2022-12-23T04:24:42.849Z,5.35
2022-12-23T04:27:13.028Z,5.57
2022-12-23T04:29:39.459Z,5.28
2022-12-23T04:32:09.134Z,5.63
2022-12-23T04:34:35.887Z,5.45
2022-12-23T04:37:02.300Z,5.03
2022-12-23T04:39:28.777Z,4.97
2022-12-23T04:41:55.278Z,5.05
2022-12-23T04:44:21.772Z,5.22
2022-12-23T04:46:48.155Z,5.03
2022-12-23T04:49:14.629Z,4.93
2022-12-23T04:51:41.005Z,4.75
2022-12-23T04:54:07.396Z,5.82
2022-12-23T04:56:33.770Z,5.00
2022-12-23T04:59:02.247Z,5.15
2022-12-23T05:01:29.262Z,4.72
2022-12-23T05:03:55.735Z,4.97
2022-12-23T05:06:22.121Z,5.82
2022-12-23T05:08:48.538Z,4.72
2022-12-23T05:11:15.004Z,5.97
2022-12-23T05:13:41.783Z,4.57
2022-12-23T05:16:08.387Z,5.45
2022-12-23T05:18:34.826Z,4.75
2022-12-23T05:21:01.274Z,4.63
2022-12-23T05:23:27.744Z,4.57
2022-12-23T05:25:54.430Z,4.88
2022-12-23T05:28:22.684Z,4.63
2022-12-23T05:30:49.093Z,7.18
2022-12-23T05:33:15.803Z,9.75
2022-12-23T05:35:42.264Z,8.63
2022-12-23T05:38:08.730Z,10.98
2022-12-23T05:40:35.255Z,11.43
2022-12-23T05:43:01.995Z,11.02
2022-12-23T05:45:28.615Z,12.48
2022-12-23T05:47:55.041Z,11.20
2022-12-23T05:50:21.449Z,11.20
2022-12-23T05:52:47.855Z,12.23
2022-12-23T05:55:14.228Z,10.13
2022-12-23T05:57:40.672Z,11.10
2022-12-23T06:00:08.148Z,11.20
2022-12-23T06:02:34.633Z,10.57
2022-12-23T06:05:01.045Z,11.75
2022-12-23T06:07:27.561Z,10.93
2022-12-23T06:09:53.934Z,11.40
2022-12-23T06:12:20.313Z,10.90
2022-12-23T06:14:46.950Z,11.45
2022-12-23T06:17:13.391Z,10.00
2022-12-23T06:19:39.851Z,11.68
2022-12-23T06:22:06.246Z,11.77
2022-12-23T06:24:32.693Z,10.13
2022-12-23T06:26:59.120Z,10.75
2022-12-23T06:29:25.686Z,11.10
2022-12-23T06:31:52.281Z,10.27
2022-12-23T06:34:18.820Z,11.20
2022-12-23T06:36:45.238Z,11.57
2022-12-23T06:39:11.861Z,10.43
2022-12-23T06:41:38.314Z,10.40
2022-12-23T06:44:05.224Z,10.52
2022-12-23T06:46:31.806Z,10.98
2022-12-23T06:48:58.354Z,10.33
2022-12-23T06:51:24.807Z,10.48
2022-12-23T06:53:51.256Z,11.15
2022-12-23T06:56:18.521Z,10.00
2022-12-23T06:58:45.038Z,11.07
2022-12-23T07:01:11.716Z,10.77
2022-12-23T07:03:38.228Z,25.88
2022-12-23T07:06:05.028Z,11.73
2022-12-23T07:08:31.434Z,10.20
2022-12-23T07:11:02.161Z,10.73
2022-12-23T07:13:29.241Z,9.97
2022-12-23T07:15:55.822Z,8.68
2022-12-23T07:18:23.407Z,9.25
2022-12-23T07:20:50.866Z,9.43
2022-12-23T07:23:17.376Z,9.48
2022-12-23T07:25:43.827Z,9.35
2022-12-23T07:28:10.254Z,8.32
2022-12-23T07:30:36.737Z,8.90
2022-12-23T07:33:03.143Z,8.23
2022-12-23T07:35:29.895Z,8.00
2022-12-23T07:37:56.765Z,7.53
2022-12-23T07:40:23.997Z,7.95
2022-12-23T07:42:53.598Z,6.45
2022-12-23T07:45:20.115Z,6.38
2022-12-23T07:47:46.608Z,6.03
2022-12-23T07:50:13.635Z,6.37
2022-12-23T07:52:40.037Z,7.25
2022-12-23T07:55:06.710Z,7.63
2022-12-23T07:57:37.732Z,7.28
2022-12-23T08:00:06.093Z,7.88
2022-12-23T08:02:33.244Z,7.40
2022-12-23T08:04:59.723Z,8.02
2022-12-23T08:07:26.147Z,7.88
2022-12-23T08:09:52.576Z,7.85
2022-12-23T08:12:19.197Z,8.13
2022-12-23T08:14:45.865Z,6.80
2022-12-23T08:17:12.348Z,6.57
2022-12-23T08:19:38.865Z,6.88
2022-12-23T08:22:05.393Z,5.53
2022-12-23T08:24:31.805Z,5.30
2022-12-23T08:26:58.342Z,5.83
2022-12-23T08:29:24.778Z,6.63
2022-12-23T08:31:51.647Z,6.47
2022-12-23T08:34:19.288Z,6.82
2022-12-23T08:36:46.047Z,6.25
2022-12-23T08:39:12.707Z,6.60
2022-12-23T08:41:42.716Z,6.80
2022-12-23T08:44:09.581Z,7.53
2022-12-23T08:46:36.844Z,7.43
2022-12-23T08:49:04.651Z,7.10
2022-12-23T08:51:31.216Z,5.67
2022-12-23T08:54:00.795Z,6.15
2022-12-23T08:56:31.360Z,6.57
2022-12-23T08:58:58.375Z,5.75
2022-12-23T09:01:28.169Z,6.07
2022-12-23T09:03:54.918Z,6.83
2022-12-23T09:06:28.983Z,7.03
2022-12-23T09:08:56.501Z,7.18
2022-12-23T09:11:26.217Z,7.13
2022-12-23T09:13:52.745Z,7.38
2022-12-23T09:16:19.879Z,7.13
2022-12-23T09:18:46.316Z,6.70
2022-12-23T09:21:18.734Z,5.85
2022-12-23T09:23:45.796Z,7.80
2022-12-23T09:26:27.429Z,7.47
2022-12-23T09:28:55.392Z,8.20
2022-12-23T09:31:22.460Z,7.90
2022-12-23T09:33:52.362Z,8.73
2022-12-23T09:36:19.287Z,6.95
2022-12-23T09:38:46.760Z,7.72
2022-12-23T09:41:42.843Z,6.87
2022-12-23T09:44:38.468Z,6.78
2022-12-23T09:47:12.845Z,7.25
2022-12-23T09:49:47.264Z,7.53
2022-12-23T09:52:19.292Z,7.70
2022-12-23T09:54:50.076Z,6.97
2022-12-23T09:57:22.411Z,7.53
2022-12-23T10:00:05.680Z,8.02
2022-12-23T10:03:01.793Z,7.88
2022-12-23T10:05:46.623Z,7.88
2022-12-23T10:08:35.866Z,7.60
2022-12-23T10:11:18.675Z,8.45
2022-12-23T10:13:56.405Z,8.00
2022-12-23T10:16:27.708Z,7.40
2022-12-23T10:19:07.061Z,7.40
2022-12-23T10:22:04.958Z,7.77
2022-12-23T10:24:40.802Z,7.75
2022-12-23T10:27:34.166Z,7.28
2022-12-23T10:33:23.422Z,7.07
2022-12-23T10:36:08.120Z,7.20
2022-12-23T10:38:54.247Z,7.40
2022-12-23T10:41:20.588Z,7.13
2022-12-23T10:43:46.959Z,6.80
2022-12-23T10:46:39.781Z,7.63
2022-12-23T10:49:43.827Z,7.07
2022-12-23T10:52:25.548Z,6.22
2022-12-23T10:54:51.960Z,6.68
2022-12-23T10:57:20.172Z,5.85
2022-12-23T10:59:47.019Z,6.22
2022-12-23T11:02:13.696Z,6.50
2022-12-23T11:04:43.115Z,5.97
2022-12-23T11:10:03.931Z,6.50
2022-12-23T11:12:42.497Z,6.50
2022-12-23T11:15:32.660Z,6.38
2022-12-23T11:18:01.304Z,6.38
2022-12-23T11:20:28.092Z,7.25
2022-12-23T11:23:02.697Z,7.15
2022-12-23T11:25:40.569Z,6.85
2022-12-23T11:28:10.754Z,6.80
2022-12-23T11:30:39.585Z,7.43
2022-12-23T11:33:06.602Z,8.90
2022-12-23T11:35:36.154Z,9.30
2022-12-23T11:38:03.380Z,9.88
2022-12-23T11:40:34.116Z,8.80
2022-12-23T11:43:14.433Z,9.77
2022-12-23T11:45:41.022Z,10.43
2022-12-23T11:48:27.231Z,10.77
2022-12-23T11:51:02.132Z,11.23
2022-12-23T11:53:28.671Z,10.70
2022-12-23T11:56:05.700Z,11.45
2022-12-23T11:58:40.663Z,11.63
2022-12-23T12:01:17.728Z,10.80
2022-12-23T12:03:53.877Z,12.32
2022-12-23T12:06:22.580Z,12.57
2022-12-23T12:08:55.800Z,13.73
2022-12-23T12:11:28.144Z,12.10
2022-12-23T12:14:00.478Z,13.02
2022-12-23T12:16:59.445Z,11.63
2022-12-23T12:19:31.409Z,13.20
2022-12-23T12:22:04.093Z,13.27
2022-12-23T12:24:41.905Z,14.80
2022-12-23T12:27:11.287Z,12.55
2022-12-23T12:29:51.555Z,11.70
2022-12-23T12:32:21.015Z,12.23
2022-12-23T12:35:00.765Z,12.70
2022-12-23T12:37:41.061Z,12.70
2022-12-23T12:40:16.463Z,12.13
2022-12-23T12:42:48.823Z,11.50
2022-12-23T12:45:22.999Z,11.47
2022-12-23T12:48:47.070Z,10.93
2022-12-23T12:51:29.921Z,10.23
2022-12-23T12:54:06.305Z,9.23
2022-12-23T12:56:46.903Z,10.05
2022-12-23T12:59:27.859Z,9.07
2022-12-23T13:02:16.377Z,9.57
2022-12-23T13:05:07.863Z,10.43
2022-12-23T13:07:40.704Z,9.55
2022-12-23T13:10:41.011Z,9.65
2022-12-23T13:13:10.850Z,9.20
2022-12-23T13:16:03.288Z,8.85
2022-12-23T13:18:46.868Z,10.88
2022-12-23T13:21:24.290Z,9.85
2022-12-23T13:24:07.936Z,10.98
2022-12-23T13:26:41.414Z,10.57
2022-12-23T13:29:32.365Z,11.23
2022-12-23T13:32:20.537Z,10.27
2022-12-23T13:34:52.931Z,11.48
2022-12-23T13:37:32.636Z,10.95
2022-12-23T13:40:47.337Z,9.13
2022-12-23T13:43:18.631Z,10.52
2022-12-23T13:45:47.163Z,8.35
2022-12-23T13:48:55.207Z,9.85
2022-12-23T13:51:59.027Z,8.77
2022-12-23T13:54:43.607Z,9.10
2022-12-23T13:57:27.323Z,8.65
2022-12-23T14:00:05.957Z,9.50
2022-12-23T14:02:36.101Z,8.82
2022-12-23T14:05:05.283Z,10.20
2022-12-23T14:07:33.858Z,8.98
2022-12-23T14:10:12.638Z,8.88
2022-12-23T14:12:42.248Z,10.35
2022-12-23T14:15:38.373Z,10.70
2022-12-23T14:18:30.722Z,10.18
2022-12-23T14:21:25.616Z,8.82
2022-12-23T14:24:09.937Z,9.55
2022-12-23T14:27:11.641Z,8.43
2022-12-23T14:30:07.262Z,8.40
2022-12-23T14:32:44.055Z,8.55
2022-12-23T14:35:24.146Z,10.52
2022-12-23T14:38:22.434Z,8.70
2022-12-23T14:40:50.914Z,8.38
2022-12-23T14:43:23.611Z,7.80
2022-12-23T14:46:01.038Z,8.57
2022-12-23T14:48:33.650Z,6.93
2022-12-23T14:51:22.973Z,7.30
2022-12-23T14:53:52.432Z,8.35
2022-12-23T14:56:18.832Z,7.50
2022-12-23T14:58:51.696Z,7.45
2022-12-23T15:01:26.847Z,6.70
2022-12-23T15:03:59.269Z,8.25
2022-12-23T15:06:41.725Z,7.22
2022-12-23T15:09:16.365Z,7.75
2022-12-23T15:11:42.883Z,7.43
2022-12-23T15:14:20.880Z,6.23
2022-12-23T15:16:47.377Z,7.43
2022-12-23T15:19:22.042Z,7.35
2022-12-23T15:21:56.662Z,7.38
2022-12-23T15:24:26.773Z,7.20
2022-12-23T15:27:24.551Z,6.43
2022-12-23T15:29:45.992Z,6.07
2022-12-23T15:32:12.589Z,7.28
2022-12-23T15:34:39.206Z,6.68
2022-12-23T15:37:11.521Z,6.20
2022-12-23T15:39:41.806Z,7.32
2022-12-23T15:42:31.742Z,7.28
2022-12-23T15:44:58.525Z,6.45
2022-12-23T15:47:37.003Z,6.28
2022-12-23T15:50:04.340Z,6.65
2022-12-23T15:52:32.592Z,6.33
2022-12-23T15:55:11.659Z,6.82
2022-12-23T15:57:49.824Z,6.38
2022-12-23T16:00:19.958Z,6.75
2022-12-23T16:03:04.707Z,6.63
2022-12-23T16:05:36.594Z,6.17
2022-12-23T16:08:21.802Z,7.93
2022-12-23T16:11:10.585Z,7.28
2022-12-23T16:13:41.479Z,6.88
2022-12-23T16:16:43.094Z,6.93
2022-12-23T16:19:38.699Z,6.40
2022-12-23T16:22:17.956Z,6.53
2022-12-23T16:25:03.258Z,7.15
2022-12-23T16:27:42.518Z,6.55
2022-12-23T16:30:21.417Z,7.72
2022-12-23T16:32:56.757Z,7.68
2022-12-23T16:35:43.227Z,7.07
2022-12-23T16:38:15.783Z,7.72
2022-12-23T16:40:43.288Z,7.13
2022-12-23T16:43:10.139Z,8.25
2022-12-23T16:45:37.134Z,7.23
2022-12-23T16:48:19.786Z,7.13
2022-12-23T16:50:46.852Z,6.18
2022-12-23T16:53:14.218Z,6.72
2022-12-23T16:55:46.253Z,5.80
2022-12-23T16:58:16.794Z,7.03
2022-12-23T17:00:43.376Z,7.05
2022-12-23T17:03:15.703Z,6.85
2022-12-23T17:05:42.324Z,6.15
2022-12-23T17:08:09.269Z,6.85
2022-12-23T17:10:36.937Z,6.00
2022-12-23T17:13:03.433Z,6.70
2022-12-23T17:15:29.860Z,5.55
2022-12-23T17:17:56.500Z,6.35
2022-12-23T17:20:24.246Z,5.38
2022-12-23T17:22:58.169Z,5.47
2022-12-23T17:25:26.758Z,5.57
2022-12-23T17:27:53.661Z,5.28
2022-12-23T17:30:24.088Z,5.97
2022-12-23T17:32:56.300Z,5.97
2022-12-23T17:35:24.111Z,6.53
2022-12-23T17:37:51.045Z,7.15
2022-12-23T17:40:18.100Z,7.95
2022-12-23T17:42:45.398Z,7.30
2022-12-23T17:45:27.637Z,7.10
2022-12-23T17:47:54.668Z,7.97
2022-12-23T17:50:21.398Z,8.15
2022-12-23T17:52:48.564Z,7.75
2022-12-23T17:55:19.915Z,8.65
2022-12-23T17:57:46.478Z,8.18
2022-12-23T18:00:13.764Z,7.00
2022-12-23T18:02:40.795Z,7.07
2022-12-23T18:05:28.300Z,6.18
2022-12-23T18:07:55.898Z,6.63
2022-12-23T18:10:26.625Z,6.32
2022-12-23T18:12:58.289Z,5.15
2022-12-23T18:15:30.036Z,6.35
2022-12-23T18:17:56.412Z,5.40
2022-12-23T18:20:24.971Z,5.30
2022-12-23T18:22:54.337Z,5.75
2022-12-23T18:25:26.683Z,3.80
2022-12-23T18:27:54.151Z,4.43
2022-12-23T18:30:21.488Z,4.85
2022-12-23T18:32:48.237Z,4.18
2022-12-23T18:35:27.142Z,4.43
2022-12-23T18:37:54.648Z,3.67
2022-12-23T18:40:21.513Z,4.18
2022-12-23T18:42:47.993Z,4.60
2022-12-23T18:45:28.362Z,4.05
2022-12-23T18:47:55.394Z,3.47
2022-12-23T18:50:21.980Z,3.35
2022-12-23T18:52:48.935Z,2.92
2022-12-23T18:55:15.426Z,3.28
2022-12-23T18:57:41.951Z,3.17
2022-12-23T19:00:23.053Z,3.80
2022-12-23T19:02:53.156Z,3.33
2022-12-23T19:05:25.766Z,3.83
2022-12-23T19:07:53.537Z,3.95
2022-12-23T19:10:28.248Z,3.40
2022-12-23T19:12:55.575Z,3.40
2022-12-23T19:15:23.117Z,3.73
2022-12-23T19:17:50.358Z,4.43
2022-12-23T19:20:18.585Z,3.45
2022-12-23T19:22:45.548Z,3.20
2022-12-23T19:25:14.840Z,3.72
2022-12-23T19:27:42.478Z,3.70
2022-12-23T19:30:12.491Z,3.88
2022-12-23T19:32:38.857Z,3.13
2022-12-23T19:35:05.837Z,4.60
2022-12-23T19:37:33.443Z,2.92
2022-12-23T19:40:00.547Z,4.07
2022-12-23T19:42:27.015Z,3.55
2022-12-23T19:44:53.444Z,2.92
2022-12-23T19:47:19.867Z,3.92
2022-12-23T19:49:46.291Z,3.78
2022-12-23T19:52:12.821Z,3.17
2022-12-23T19:54:39.206Z,3.35
2022-12-23T19:57:05.698Z,4.03
2022-12-23T19:59:32.102Z,3.42
2022-12-23T20:01:58.623Z,2.90
2022-12-23T20:04:25.069Z,3.20
2022-12-23T20:06:52.484Z,3.58
2022-12-23T20:09:19.096Z,3.28
2022-12-23T20:11:47.617Z,3.53
2022-12-23T20:14:17.020Z,3.38
2022-12-23T20:16:44.068Z,3.40
2022-12-23T20:19:10.778Z,4.53
2022-12-23T20:21:37.505Z,4.28
2022-12-23T20:24:05.778Z,3.67
2022-12-23T20:26:32.319Z,4.20
2022-12-23T20:28:58.934Z,4.17
2022-12-23T20:31:31.253Z,4.32
2022-12-23T20:33:58.447Z,4.38
2022-12-23T20:36:27.264Z,4.22
2022-12-23T20:38:54.255Z,3.47
2022-12-23T20:41:23.426Z,3.60
2022-12-23T20:44:23.302Z,3.53
2022-12-23T20:46:38.107Z,2.25
2022-12-23T20:49:04.636Z,2.97
2022-12-23T20:51:31.030Z,3.42
2022-12-23T20:54:00.961Z,2.77
2022-12-23T20:56:29.183Z,2.45
2022-12-23T20:59:00.357Z,2.15
2022-12-23T21:01:35.757Z,2.00
2022-12-23T21:04:08.375Z,2.33
2022-12-23T21:06:36.011Z,2.70
2022-12-23T21:09:05.775Z,1.63
2022-12-23T21:11:34.897Z,1.67
2022-12-23T21:14:06.871Z,1.75
2022-12-23T21:16:36.528Z,1.08
2022-12-23T21:19:04.027Z,1.53
2022-12-23T21:21:31.764Z,1.20
2022-12-23T21:24:01.366Z,1.58
2022-12-23T21:26:30.324Z,1.65
2022-12-23T21:29:01.867Z,1.88
2022-12-23T21:31:30.965Z,1.45
2022-12-23T21:33:58.231Z,1.40
2022-12-23T21:36:28.088Z,1.95
2022-12-23T21:38:55.096Z,1.75
2022-12-23T21:41:24.520Z,1.23
2022-12-23T21:43:51.323Z,1.33
2022-12-23T21:46:20.206Z,1.38
2022-12-23T21:48:47.977Z,1.23
2022-12-23T21:51:20.473Z,1.27
2022-12-23T21:53:49.533Z,0.80
2022-12-23T21:56:18.792Z,1.95
2022-12-23T21:58:45.794Z,0.68
2022-12-23T22:01:16.043Z,1.42
2022-12-23T22:03:43.691Z,1.33
2022-12-23T22:06:12.771Z,1.20
2022-12-23T22:08:39.845Z,1.27
2022-12-23T22:11:18.563Z,1.25
2022-12-23T22:13:45.514Z,1.20
2022-12-23T22:16:15.152Z,0.80
2022-12-23T22:18:42.211Z,1.58
2022-12-23T22:21:14.674Z,1.37
2022-12-23T22:23:41.984Z,1.02
2022-12-23T22:26:10.499Z,0.85
2022-12-23T22:28:39.031Z,0.98
2022-12-23T22:31:19.453Z,1.20
2022-12-23T22:33:46.288Z,1.37
2022-12-23T22:36:14.384Z,1.45
2022-12-23T22:38:41.713Z,1.10
2022-12-23T22:41:08.729Z,1.60
2022-12-23T22:43:35.230Z,1.35
2022-12-23T22:46:02.058Z,1.40
2022-12-23T22:48:29.994Z,0.73
2022-12-23T22:51:05.189Z,1.10
2022-12-23T22:53:32.184Z,1.45
2022-12-23T22:56:00.165Z,1.40
2022-12-23T22:58:28.528Z,1.37
2022-12-23T23:00:55.433Z,1.27
2022-12-23T23:03:22.208Z,2.22
2022-12-23T23:05:59.459Z,1.45
2022-12-23T23:08:26.206Z,1.65
2022-12-23T23:10:53.557Z,1.47
2022-12-23T23:13:20.014Z,2.45
2022-12-23T23:15:49.961Z,0.70
2022-12-23T23:18:16.493Z,1.38
2022-12-23T23:20:42.957Z,1.85
2022-12-23T23:23:09.404Z,1.77
2022-12-23T23:25:35.857Z,1.50
2022-12-23T23:28:02.471Z,2.50
2022-12-23T23:30:29.021Z,1.67
2022-12-23T23:32:55.513Z,1.50
2022-12-23T23:35:21.973Z,1.37
2022-12-23T23:37:48.441Z,1.50
2022-12-23T23:40:14.991Z,1.38
2022-12-23T23:42:41.445Z,1.83
2022-12-23T23:45:08.245Z,1.58
2022-12-23T23:47:34.944Z,2.43
2022-12-23T23:50:01.753Z,1.70
2022-12-23T23:52:28.942Z,1.40
2022-12-23T23:54:55.511Z,1.35
2022-12-23T23:57:22.560Z,1.95
2022-12-23T23:59:48.998Z,1.92
